• Join FlightAware (Why Join?)
  • Login
  • US Flag 
Gobble Gobble! 
11:07AM EST


 

Airport Tracker/Info


-or-


 

Live Flight TrackerFlight Track Log ✈ N774AN ✈ 13-Apr-2013 ✈ EGLL / LHR - KJFK

Flight Track Log - Related Links

Times and Time Zones

All times are in EDT time to prevent confusion due to time zone crossing. See the N774AN flight status page for this flight to view local times or setup timezone preferences in your user account.

Time Position Orientation Groundspeed Altitude Reporting Facility
EDT Latitude Longitude Course Direction KTS MPH feet Rate Location/Type
02:18PM 51.4780 -0.4830 270° West 175 201 500  Level FlightAware
02:19PM 51.4783 -0.5228 271° West 169 194 1,900 3,060 Climbing FlightAware ADS-B
02:19PM 51.4780 -0.5297 266° West 166 191 2,100 2,400 Climbing FlightAware ADS-B
02:19PM 51.4774 -0.5355 261° West 165 190 2,300 1,980 Climbing FlightAware ADS-B
02:19PM 51.4761 -0.5426 254° West 161 185 2,500 1,620 Climbing FlightAware ADS-B
02:19PM 51.4748 -0.5479 249° West 159 183 2,600 2,220 Climbing FlightAware ADS-B
02:19PM 51.4739 -0.5523 252° West 160 184 2,800 1,800 Climbing FlightAware ADS-B
02:19PM 51.4725 -0.5593 252° West 160 184 2,900 1,320 Climbing FlightAware ADS-B
02:20PM 51.4697 -0.5724 251° West 164 189 3,200 1,320 Climbing FlightAware ADS-B
02:20PM 51.4682 -0.5798 252° West 170 196 3,300 600 Climbing FlightAware ADS-B
02:20PM 51.4673 -0.5848 254° West 177 204 3,300 360 Level FlightAware ADS-B
02:20PM 51.4648 -0.5995 255° West 192 221 3,400 480 Climbing FlightAware ADS-B
02:20PM 51.4622 -0.6175 257° West 209 241 3,500 1,080 Climbing FlightAware ADS-B
02:20PM 51.4601 -0.6318 257° West 213 245 3,800 1,800 Climbing FlightAware ADS-B
02:20PM 51.4579 -0.6480 258° West 214 246 4,100 1,800 Climbing FlightAware ADS-B
02:21PM 51.4557 -0.6673 260° West 219 252 4,500 1,860 Climbing FlightAware ADS-B
02:21PM 51.4553 -0.6738 264° West 224 258 4,600 720 Climbing FlightAware ADS-B
02:21PM 51.4548 -0.6813 264° West 231 266 4,600 1,260 Level FlightAware ADS-B
02:21PM 51.4544 -0.6986 268° West 235 270 4,900 2,040 Climbing FlightAware ADS-B
02:21PM 51.4543 -0.7202 270° West 236 272 5,400 2,040 Climbing FlightAware ADS-B
02:21PM 51.4543 -0.7429 270° West 239 275 5,800 1,860 Climbing FlightAware ADS-B
02:22PM 51.4542 -0.7728 270° West 244 281 6,300 2,040 Climbing FlightAware ADS-B
02:22PM 51.4541 -0.8006 270° West 247 284 6,900 2,160 Climbing FlightAware ADS-B
02:22PM 51.4537 -0.8258 269° West 247 284 7,400 2,280 Climbing FlightAware ADS-B
02:22PM 51.4533 -0.8477 268° West 246 283 7,900 2,520 Climbing FlightAware ADS-B
02:22PM 51.4531 -0.8622 269° West 245 282 8,200 2,280 Climbing FlightAware ADS-B
02:23PM 51.4533 -0.8713 272° West 245 282 8,400 1,980 Climbing FlightAware ADS-B
02:23PM 51.4540 -0.8824 276° West 246 283 8,600 1,980 Climbing FlightAware ADS-B
02:23PM 51.4549 -0.8883 284° West 248 285 8,700 1,680 Climbing FlightAware ADS-B
02:23PM 51.4563 -0.8954 288° West 250 288 8,800 1,800 Climbing FlightAware ADS-B
02:23PM 51.4594 -0.9059 295° West 254 292 9,000 1,980 Climbing FlightAware ADS-B
02:23PM 51.4670 -0.9316 295° West 254 292 9,500 2,100 Climbing FlightAware ADS-B
02:24PM 51.4776 -0.9722 293° West 255 293 10,400 2,220 Climbing FlightAware ADS-B
02:24PM 51.4887 -1.0081 296° West 258 297 11,200 -180 Climbing FlightAware ADS-B
02:24PM 51.4969 -1.0378 296° West 300 345 10,300 2,460 Descending FlightAware UK
02:24PM 51.5027 -1.0631 296° West 263 303 12,500 1,980 Climbing FlightAware ADS-B
02:25PM 51.5098 -1.0929 296° West 318 366 11,300 1,080 Descending FlightAware UK
02:25PM 51.5172 -1.1266 296° West 302 348 13,100 960 Climbing FlightAware ADS-B
02:25PM 51.5269 -1.1703 296° West 362 417 11,900 1,200 Descending FlightAware UK
02:25PM 51.5321 -1.1948 296° West 335 386 13,700 2,760 Climbing FlightAware ADS-B
02:26PM 51.5421 -1.2405 296° West 372 428 13,300 3,060 Descending FlightAware UK
02:26PM 51.5476 -1.2662 296° West 336 387 15,300 2,580 Climbing FlightAware ADS-B
02:26PM 51.5574 -1.3112 296° West 378 435 14,600 2,700 Descending FlightAware UK
02:26PM 51.5635 -1.3398 296° West 345 397 16,700 2,580 Climbing FlightAware ADS-B
02:27PM 51.5729 -1.3833 296° West 388 447 15,900 2,460 Descending FlightAware UK
02:27PM 51.5802 -1.4172 296° West 351 404 18,000 2,760 Climbing FlightAware ADS-B
02:27PM 51.5889 -1.4574 296° West 400 460 17,300 2,880 Descending FlightAware UK
02:27PM 51.5963 -1.4919 296° West 351 404 19,500 2,400 Climbing FlightAware ADS-B
02:28PM 51.6048 -1.5314 296° West 402 463 18,500 2,280 Descending FlightAware UK
02:28PM 51.6129 -1.5691 296° West 360 414 20,700 2,160 Climbing FlightAware ADS-B
02:28PM 51.6211 -1.6073 296° West 408 470 19,600 1,980 Descending FlightAware UK
02:28PM 51.6297 -1.6468 296° West 369 425 21,700 2,220 Climbing FlightAware ADS-B
02:29PM 51.6410 -1.7002 296° West 416 479 20,900 2,160 Descending FlightAware UK
02:29PM 51.6464 -1.7257 296° West 376 433 22,800 1,920 Climbing FlightAware ADS-B
02:29PM 51.6547 -1.7642 296° West 424 488 21,700 2,160 Descending FlightAware UK
02:29PM 51.6635 -1.8056 296° West 378 435 23,900 2,400 Climbing FlightAware ADS-B
02:30PM 51.6716 -1.8441 296° West 428 493 22,900 1,920 Descending FlightAware UK
02:30PM 51.6807 -1.8871 296° West 385 443 24,900 1,680 Climbing FlightAware ADS-B
02:30PM 51.6921 -1.9412 296° West 438 504 23,900 1,800 Descending FlightAware UK
02:31PM 51.6984 -1.9711 296° West 392 451 25,800 1,980 Climbing FlightAware ADS-B
02:31PM 51.7096 -2.0241 296° West 446 513 24,900 1,800 Descending FlightAware UK
02:31PM 51.7177 -2.0626 296° West 397 457 26,800 1,980 Climbing FlightAware ADS-B
02:31PM 51.7271 -2.1071 296° West 454 522 25,900 2,100 Descending FlightAware UK
02:32PM 51.7356 -2.1481 296° West 397 457 27,900 1,800 Climbing FlightAware ADS-B
02:32PM 51.7446 -2.1910 296° West 458 527 26,800 1,800 Descending FlightAware UK
02:32PM 51.7533 -2.2331 296° West 397 457 28,800 1,800 Climbing FlightAware ADS-B
02:32PM 51.7620 -2.2751 296° West 462 532 27,700 1,500 Descending FlightAware UK
02:33PM 51.7715 -2.3208 296° West 401 461 29,600 1,320 Climbing FlightAware ADS-B
02:33PM 51.7830 -2.3767 296° West 466 536 28,500 1,140 Descending FlightAware UK
02:33PM 51.7896 -2.4087 296° West 405 466 30,200 960 Climbing FlightAware ADS-B
02:33PM 51.8007 -2.4626 296° West 468 539 29,000 1,080 Descending FlightAware UK
02:34PM 51.8082 -2.4995 296° West 410 472 30,800 600 Climbing FlightAware ADS-B
02:34PM 51.8180 -2.5501 296° West 478 550 29,300 360 Descending FlightAware UK
02:34PM 51.8237 -2.5900 296° West 422 486 31,000 600 Climbing FlightAware ADS-B
02:34PM 51.8312 -2.6421 296° West 488 562 29,600 960 Descending FlightAware UK
02:35PM 51.8367 -2.6830 296° West 427 491 31,500 1,560 Climbing FlightAware ADS-B
02:35PM 51.8438 -2.7346 296° West 496 571 30,400 960 Descending FlightAware UK
02:35PM 51.8495 -2.7779 296° West 424 488 32,000  Climbing FlightAware ADS-B
02:35PM 51.8562 -2.8281 296° West 490 564 30,400  Descending FlightAware UK
02:36PM 51.8617 -2.8690 296° West 416 479 32,000 180 Climbing FlightAware ADS-B
02:36PM 51.8684 -2.9183 296° West 494 568 30,500  Descending FlightAware UK
02:36PM 51.8739 -2.9604 296° West 416 479 32,000  Climbing FlightAware ADS-B
02:36PM 51.8802 -3.0087 296° West 492 566 30,500 -2,700 Descending FlightAware UK
02:37PM 51.8874 -3.0627 282° West 490 564 30,500 3,420 Level FlightAware UK
02:37PM 51.8904 -3.0859 282° West 410 472 32,000  Climbing FlightAware ADS-B
02:37PM 51.8967 -3.1345 282° West 488 562 30,500  Descending FlightAware UK
02:37PM 51.9021 -3.1755 282° West 409 471 32,000  Climbing FlightAware ADS-B
02:38PM 51.9084 -3.2240 282° West 488 562 30,500  Descending FlightAware UK
02:38PM 51.9157 -3.2804 282° West 408 470 32,000 -180 Climbing FlightAware ADS-B
02:38PM 51.9222 -3.3306 282° West 486 559 30,400  Descending FlightAware UK
02:38PM 51.9260 -3.3570 282° West 406 467 32,000 3,420 Climbing FlightAware
02:39PM 51.9332 -3.4151 281° West 407 468 32,000 -2,700 Level FlightAware ADS-B
02:39PM 51.9407 -3.4731 281° West 484 557 30,500 -2,400 Descending FlightAware UK
02:39PM 51.9475 -3.5265 282° West 484 557 30,500 -180 Level FlightAware UK
02:40PM 51.9543 -3.5799 282° West 482 555 30,400 3,180 Descending FlightAware UK
02:40PM 51.9570 -3.6040 282° West 405 466 32,000  Climbing FlightAware
02:40PM 51.9655 -3.6687 282° West 484 557 30,400 -2,580 Descending FlightAware UK
02:40PM 51.9722 -3.7221 282° West 482 555 30,400 3,840 Level FlightAware UK
02:41PM 51.9740 -3.7360 282° West 406 467 32,000 240 Climbing FlightAware
02:41PM 51.9811 -3.7934 282° West 482 555 30,500  Descending FlightAware UK
02:41PM 51.9890 -3.8550 282° West 406 467 32,000  Climbing FlightAware
02:42PM 51.9967 -3.9178 282° West 484 557 30,500 -2,520 Descending FlightAware UK
02:42PM 52.0034 -3.9714 282° West 484 557 30,500 3,300 Level FlightAware UK
02:42PM 52.0060 -3.9920 282° West 405 466 32,000  Climbing FlightAware
02:42PM 52.0122 -4.0429 282° West 484 557 30,500 -2,700 Descending FlightAware UK
02:43PM 52.0187 -4.0971 281° West 484 557 30,500 3,600 Level FlightAware UK
02:43PM 52.0200 -4.1110 281° West 405 466 32,000  Climbing FlightAware
02:43PM 52.0274 -4.1680 281° West 484 557 30,500 -2,580 Descending FlightAware UK
02:43PM 52.0339 -4.2215 281° West 484 557 30,500 3,900 Level FlightAware UK
02:43PM 52.0350 -4.2310 281° West 405 466 32,000  Climbing FlightAware
02:44PM 52.0425 -4.2931 281° West 484 557 30,500 -2,460 Descending FlightAware UK
02:44PM 52.0489 -4.3467 281° West 484 557 30,500 3,420 Level FlightAware UK
02:44PM 52.0510 -4.3610 281° West 406 467 32,000  Climbing FlightAware
02:44PM 52.0575 -4.4183 281° West 484 557 30,500 -2,700 Descending FlightAware UK
02:45PM 52.0639 -4.4721 281° West 484 557 30,500 3,720 Level FlightAware UK
02:45PM 52.0650 -4.4810 281° West 406 467 32,000 -300 Climbing FlightAware
02:45PM 52.0731 -4.5436 281° West 482 555 30,400 -2,520 Descending FlightAware UK
02:45PM 52.0833 -4.5967 287° West 484 557 30,500 4,320 Climbing FlightAware UK
02:45PM 52.0840 -4.5990 287° West 411 473 32,000  Climbing FlightAware
02:46PM 52.0983 -4.6670 287° West 486 559 30,500 -2,400 Descending FlightAware UK
02:46PM 52.1109 -4.7192 292° West 486 559 30,500 3,600 Level FlightAware UK
02:46PM 52.1140 -4.7340 292° West 416 479 32,000  Climbing FlightAware
02:46PM 52.1272 -4.7894 292° West 486 559 30,500 -2,580 Descending FlightAware UK
02:47PM 52.1392 -4.8422 290° West 488 562 30,500 3,180 Level FlightAware UK
02:47PM 52.1440 -4.8620 290° West 418 481 32,000  Climbing FlightAware
02:47PM 52.1596 -4.9305 290° West 488 562 30,500 -2,400 Descending FlightAware UK
02:48PM 52.1720 -4.9836 291° West 488 562 30,500 4,500 Level FlightAware UK
02:48PM 52.1720 -4.9810 291° West 420 483 32,000  Climbing FlightAware
02:48PM 52.1845 -5.0367 291° West 490 564 30,500 -2,700 Descending FlightAware UK
02:48PM 52.1970 -5.0900 291° West 490 564 30,500 3,720 Level FlightAware UK
02:48PM 52.1990 -5.0990 291° West 423 487 32,000  Climbing FlightAware
02:49PM 52.2135 -5.1613 291° West 490 564 30,500 -2,520 Descending FlightAware UK
02:49PM 52.2260 -5.2151 291° West 490 564 30,500 3,300 Level FlightAware UK
02:49PM 52.2310 -5.2360 291° West 424 488 32,000  Climbing FlightAware
02:49PM 52.2427 -5.2870 291° West 490 564 30,500 -2,760 Descending FlightAware UK
02:50PM 52.2551 -5.3409 291° West 490 564 30,500 3,600 Level FlightAware UK
02:50PM 52.2570 -5.3480 291° West 426 490 32,000  Climbing FlightAware
02:50PM 52.2718 -5.4125 291° West 492 566 30,500 -2,580 Descending FlightAware UK
02:50PM 52.2842 -5.4667 291° West 492 566 30,500 3,900 Level FlightAware UK
02:50PM 52.2860 -5.4770 291° West 427 491 32,000  Climbing FlightAware
02:51PM 52.3008 -5.5390 291° West 492 566 30,500 -2,460 Descending FlightAware UK
02:51PM 52.3132 -5.5933 290° West 492 566 30,500 3,420 Level FlightAware UK
02:51PM 52.3170 -5.6120 290° West 427 491 32,000  Climbing FlightAware
02:51PM 52.3296 -5.6659 290° West 492 566 30,500 -2,700 Descending FlightAware UK
02:52PM 52.3418 -5.7203 290° West 492 566 30,500 3,720 Level FlightAware UK
02:52PM 52.3450 -5.7330 290° West 428 493 32,000  Climbing FlightAware
02:52PM 52.3582 -5.7931 290° West 492 566 30,500 -2,520 Descending FlightAware UK
02:52PM 52.3704 -5.8477 290° West 494 568 30,500 3,300 Level FlightAware UK
02:52PM 52.3750 -5.8680 290° West 429 494 32,000  Climbing FlightAware
02:53PM 52.3867 -5.9206 290° West 492 566 30,500 -2,760 Descending FlightAware UK
02:53PM 52.3990 -5.9754 290° West 492 566 30,500 3,600 Level FlightAware UK
02:53PM 52.4020 -5.9900 290° West 429 494 32,000  Climbing FlightAware
02:53PM 52.4152 -6.0480 290° West 492 566 30,500 -2,580 Descending FlightAware UK
02:54PM 52.4275 -6.1028 290° West 492 566 30,500 3,900 Level FlightAware UK
02:54PM 52.4290 -6.1110 290° West 428 493 32,000 -300 Climbing FlightAware
02:54PM 52.4437 -6.1760 290° West 490 564 30,400 -2,640 Descending FlightAware UK
02:54PM 52.4557 -6.2309 290° West 492 566 30,400 3,660 Level FlightAware UK
02:55PM 52.4600 -6.2520 290° West 428 493 32,000  Climbing FlightAware
02:55PM 52.4718 -6.3040 290° West 492 566 30,400 -2,880 Descending FlightAware UK
02:55PM 52.4838 -6.3589 290° West 492 566 30,400 3,960 Level FlightAware UK
02:55PM 52.4870 -6.3730 290° West 428 493 32,000  Climbing FlightAware
02:56PM 52.4998 -6.4320 290° West 490 564 30,400 -2,700 Descending FlightAware UK
02:56PM 52.5118 -6.4868 290° West 490 564 30,400 3,540 Level FlightAware UK
02:56PM 52.5160 -6.5070 290° West 427 491 32,000  Climbing FlightAware
02:56PM 52.5276 -6.5600 290° West 490 564 30,400 -2,760 Descending FlightAware UK
02:57PM 52.5396 -6.6148 290° West 490 564 30,500 3,840 Climbing FlightAware UK
02:57PM 52.5430 -6.6310 290° West 428 493 32,000  Climbing FlightAware
02:57PM 52.5554 -6.6882 290° West 488 562 30,500 -2,580 Descending FlightAware UK
02:57PM 52.5672 -6.7434 289° West 488 562 30,500 3,900 Level FlightAware UK
02:57PM 52.5690 -6.7520 289° West 430 495 32,000  Climbing FlightAware
02:58PM 52.5831 -6.8172 289° West 488 562 30,500 -2,640 Descending FlightAware UK
02:58PM 52.5949 -6.8725 289° West 488 562 30,400 3,420 Descending FlightAware UK
02:58PM 52.5990 -6.8930 289° West 429 494 32,000  Climbing FlightAware
02:58PM 52.6107 -6.9465 289° West 492 566 30,400 -2,880 Descending FlightAware UK
02:59PM 52.6225 -7.0018 289° West 488 562 30,400 3,960 Level FlightAware UK
02:59PM 52.6240 -7.0100 289° West 426 490 32,000  Climbing FlightAware
02:59PM 52.6381 -7.0752 289° West 486 559 30,400 -2,520 Descending FlightAware UK
02:59PM 52.6498 -7.1302 289° West 486 559 30,500 3,540 Climbing FlightAware UK
02:59PM 52.6540 -7.1530 289° West 426 490 32,000  Climbing FlightAware
03:00PM 52.6651 -7.2034 289° West 484 557 30,500 -2,760 Descending FlightAware UK
03:00PM 52.6765 -7.2579 289° West 486 559 30,500 3,600 Level FlightAware UK
03:00PM 52.6800 -7.2730 289° West 428 493 32,000  Climbing FlightAware
03:00PM 52.6918 -7.3314 289° West 488 562 30,500 -2,580 Descending FlightAware UK
03:01PM 52.7033 -7.3868 289° West 488 562 30,500 3,180 Level FlightAware UK
03:01PM 52.7090 -7.4150 289° West 430 495 32,000  Climbing FlightAware
03:01PM 52.7226 -7.4795 289° West 486 559 30,500  Descending FlightAware UK
03:01PM 52.7300 -7.5140 289° West 431 496 32,000  Climbing FlightAware
03:02PM 52.7419 -7.5727 289° West 486 559 30,500 -2,760 Descending FlightAware UK
03:02PM 52.7535 -7.6288 289° West 486 559 30,500 3,000 Level FlightAware UK
03:02PM 52.7580 -7.6520 289° West 432 497 32,000  Climbing FlightAware
03:03PM 52.7727 -7.7226 289° West 488 562 30,500 -2,520 Descending FlightAware UK
03:03PM 52.7843 -7.7791 289° West 490 564 30,500 3,300 Level FlightAware UK
03:03PM 52.7880 -7.7950 289° West 437 503 32,000  Climbing FlightAware
03:03PM 52.7997 -7.8547 289° West 492 566 30,500 -2,760 Descending FlightAware UK
03:04PM 52.8112 -7.9115 289° West 494 568 30,500 3,600 Level FlightAware UK
03:04PM 52.8130 -7.9200 289° West 436 502 32,000  Climbing FlightAware
03:04PM 52.8266 -7.9873 289° West 494 568 30,500 -2,580 Descending FlightAware UK
03:04PM 52.8381 -8.0443 289° West 492 566 30,500 3,180 Level FlightAware UK
03:04PM 52.8420 -8.0640 289° West 437 503 32,000  Climbing FlightAware
03:05PM 52.8572 -8.1394 289° West 492 566 30,500  Descending FlightAware UK
03:05PM 52.8670 -8.1880 289° West 439 505 32,000  Climbing FlightAware
03:05PM 52.8800 -8.2536 289° West 492 566 30,500 -2,700 Descending FlightAware UK
03:06PM 52.8915 -8.3111 288° West 492 566 30,500 3,720 Level FlightAware UK
03:06PM 52.8920 -8.3150 288° West 438 504 32,000  Climbing FlightAware
03:06PM 52.9066 -8.3876 288° West 490 564 30,500 -2,520 Descending FlightAware UK
03:06PM 52.9178 -8.4444 288° West 492 566 30,500 3,300 Level FlightAware UK
03:06PM 52.9210 -8.4590 288° West 437 503 32,000  Climbing FlightAware
03:07PM 52.9329 -8.5211 288° West 494 568 30,500 -2,760 Descending FlightAware UK
03:07PM 52.9442 -8.5787 288° West 492 566 30,500 3,600 Level FlightAware UK
03:07PM 52.9460 -8.5850 288° West 437 503 32,000  Climbing FlightAware
03:07PM 52.9592 -8.6555 288° West 490 564 30,500 -2,760 Descending FlightAware UK
03:08PM 52.9706 -8.7130 288° West 490 564 30,400 3,900 Descending FlightAware UK
03:08PM 52.9710 -8.7170 288° West 435 501 32,000 240 Climbing FlightAware
03:08PM 52.9856 -8.7897 288° West 488 562 30,500  Descending FlightAware UK
03:08PM 52.9930 -8.8270 288° West 439 505 32,000  Climbing FlightAware
03:09PM 53.0077 -8.9049 288° West 488 562 30,500  Descending FlightAware UK
03:09PM 53.0110 -8.9240 288° West 438 504 32,000  Climbing FlightAware
03:09PM 53.0260 -9.0008 288° West 488 562 30,500  Descending FlightAware UK
03:10PM 53.0350 -9.0500 288° West 438 504 32,000 1,380 Climbing FlightAware
03:10PM 53.0630 -9.1950 288° West 437 503 32,000  Level FlightAware
03:11PM 53.0860 -9.3170 287° West 437 503 32,000  Level FlightAware
03:12PM 53.1150 -9.4680 288° West 437 503 32,000  Level FlightAware
03:12PM 53.1380 -9.5960 287° West 436 502 32,000  Level FlightAware
03:13PM 53.1620 -9.7220 288° West 435 501 32,000  Level FlightAware
03:14PM 53.1880 -9.8670 287° West 435 501 32,000  Level FlightAware
03:14PM 53.2120 -9.9950 287° West 433 498 32,000  Level FlightAware
03:15PM 53.2390 -10.1450 287° West 434 499 32,000  Level FlightAware
03:16PM 53.2610 -10.2680 287° West 435 501 32,000  Level FlightAware
03:16PM 53.2790 -10.3670 287° West 434 499 32,000  Level FlightAware
03:17PM 53.3010 -10.4930 286° West 434 499 32,000  Level FlightAware
03:18PM 53.3240 -10.6260 286° West 434 499 32,000  Level FlightAware
03:18PM 53.3490 -10.7700 286° West 435 501 32,000  Level FlightAware
03:19PM 53.3720 -10.8990 287° West 436 502 32,000  Level FlightAware
03:20PM 53.3950 -11.0310 286° West 436 502 32,000  Level FlightAware
03:21PM 53.4200 -11.1780 286° West 436 502 32,000  Level FlightAware
03:21PM 53.4410 -11.3050 286° West 435 501 32,000  Level FlightAware
03:22PM 53.4660 -11.4550 286° West 438 504 32,000  Level FlightAware
03:23PM 53.4880 -11.5860 286° West 437 503 32,000  Level FlightAware
03:23PM 53.5100 -11.7150 286° West 436 502 32,000  Level FlightAware
03:24PM 53.5330 -11.8580 285° West 436 502 32,000  Level FlightAware
03:25PM 53.5540 -11.9890 285° West 435 501 32,000  Level FlightAware
03:25PM 53.5780 -12.1370 285° West 433 498 32,000  Level FlightAware
03:26PM 53.5990 -12.2690 285° West 429 494 32,000  Level FlightAware
03:27PM 53.6240 -12.4240 285° West 428 493 32,000  Level FlightAware
03:28PM 53.6660 -12.6990 285° West 427 491 32,000  Level FlightAware
03:29PM 53.6830 -12.8090 285° West 427 491 32,000  Level FlightAware
03:30PM 53.7120 -12.9920 285° West 422 486 32,000  Level FlightAware
03:30PM 53.7280 -13.0970 284° West 421 484 32,000  Level FlightAware
03:31PM 53.7460 -13.2250 283° West 421 484 32,000  Level FlightAware
03:32PM 53.7680 -13.3590 286° West 420 483 32,000  Level FlightAware
03:33PM 53.7890 -13.5070 284° West 419 482 32,000  Level FlightAware
03:33PM 53.8050 -13.6150 284° West 419 482 32,000  Level FlightAware
03:34PM 53.8210 -13.7230 284° West 419 482 32,000  Level FlightAware
03:35PM 53.8370 -13.8320 284° West 419 482 32,000  Level FlightAware
03:35PM 53.8570 -13.9670 284° West 419 482 32,000  Level FlightAware
03:36PM 53.8730 -14.0760 284° West 419 482 32,000  Level FlightAware
03:37PM 53.8890 -14.1840 284° West 419 482 32,000  Level FlightAware
03:37PM 53.9050 -14.2930 284° West 419 482 32,000  Level FlightAware
03:38PM 53.9250 -14.4290 284° West 419 482 32,000  Level FlightAware
03:39PM 53.9410 -14.5370 284° West 419 482 32,000  Level FlightAware
03:40PM 53.9570 -14.6460 284° West 419 482 32,000  Level FlightAware
03:40PM 53.9730 -14.7550 284° West 419 482 32,000  Level FlightAware
03:41PM 53.9930 -14.8910 284° West 419 482 32,000  Level FlightAware
03:42PM 54.0080 -14.9990 283° West 419 482 32,000  Level FlightAware
03:44PM 54.0439 -15.3323 281° West  Level FlightAware Approximate
03:45PM 54.0643 -15.5268 280° West  Level FlightAware Approximate
03:46PM 54.0845 -15.7214 280° West  Level FlightAware Approximate
03:47PM 54.1043 -15.9162 280° West  Level FlightAware Approximate
03:48PM 54.1239 -16.1112 280° West  Level FlightAware Approximate
03:49PM 54.1431 -16.3064 280° West  Level FlightAware Approximate
03:50PM 54.1620 -16.5017 279° West  Level FlightAware Approximate
03:51PM 54.1806 -16.6973 279° West  Level FlightAware Approximate
03:52PM 54.1988 -16.8930 279° West  Level FlightAware Approximate
03:53PM 54.2168 -17.0889 279° West  Level FlightAware Approximate
03:54PM 54.2344 -17.2849 279° West  Level FlightAware Approximate
03:55PM 54.2517 -17.4811 279° West  Level FlightAware Approximate
03:56PM 54.2687 -17.6775 279° West  Level FlightAware Approximate
03:57PM 54.2854 -17.8741 278° West  Level FlightAware Approximate
03:58PM 54.3017 -18.0707 278° West  Level FlightAware Approximate
03:59PM 54.3178 -18.2676 278° West  Level FlightAware Approximate
04:00PM 54.3335 -18.4646 278° West  Level FlightAware Approximate
04:01PM 54.3489 -18.6618 278° West  Level FlightAware Approximate
04:02PM 54.3639 -18.8591 278° West  Level FlightAware Approximate
04:03PM 54.3787 -19.0565 277° West  Level FlightAware Approximate
04:04PM 54.3931 -19.2541 277° West  Level FlightAware Approximate
04:04PM 55.0000 -20.0000 284° West 492 566 32,000  Level ETMS Enhanced Traffic Management System
04:05PM 54.4071 -19.4523 277° West  Level FlightAware Approximate
04:06PM 54.4205 -19.6507 277° West  Level FlightAware Approximate
04:07PM 54.4336 -19.8492 277° West  Level FlightAware Approximate
04:08PM 54.4464 -20.0478 276° West  Level FlightAware Approximate
04:09PM 54.4588 -20.2466 276° West  Level FlightAware Approximate
04:10PM 55.1922 -21.3948 283° West 492 566 32,000  Level FlightAware Transoceanic
04:11PM 55.2227 -21.6285 283° West 492 566 32,000  Level FlightAware Transoceanic
04:12PM 55.2527 -21.8626 283° West 492 566 32,000  Level FlightAware Transoceanic
04:13PM 55.2823 -22.0971 282° West 492 566 32,000  Level FlightAware Transoceanic
04:14PM 55.3114 -22.3319 282° West 492 566 32,000  Level FlightAware Transoceanic
04:15PM 55.3401 -22.5671 282° West 492 566 32,000  Level FlightAware Transoceanic
04:16PM 55.3683 -22.8025 282° West 492 566 32,000  Level FlightAware Transoceanic
04:17PM 55.3961 -23.0384 282° West 492 566 32,000  Level FlightAware Transoceanic
04:18PM 55.4234 -23.2745 281° West 492 566 32,000  Level FlightAware Transoceanic
04:19PM 55.4503 -23.5110 281° West 492 566 32,000  Level FlightAware Transoceanic
04:20PM 55.4767 -23.7478 281° West 492 566 32,000  Level FlightAware Transoceanic
04:21PM 55.5027 -23.9849 281° West 492 566 32,000  Level FlightAware Transoceanic
04:22PM 55.5282 -24.2223 281° West 492 566 32,000  Level FlightAware Transoceanic
04:23PM 55.5532 -24.4600 280° West 492 566 32,000  Level FlightAware Transoceanic
04:24PM 55.5778 -24.6980 280° West 492 566 32,000  Level FlightAware Transoceanic
04:25PM 55.6019 -24.9363 280° West 492 566 32,000  Level FlightAware Transoceanic
04:26PM 55.6255 -25.1750 280° West 492 566 32,000  Level FlightAware Transoceanic
04:27PM 55.6487 -25.4139 280° West 492 566 32,000  Level FlightAware Transoceanic
04:28PM 55.6714 -25.6530 279° West 492 566 32,000  Level FlightAware Transoceanic
04:29PM 55.6937 -25.8925 279° West 492 566 32,000  Level FlightAware Transoceanic
04:30PM 55.7155 -26.1322 279° West 492 566 32,000  Level FlightAware Transoceanic
04:31PM 55.7368 -26.3722 279° West 492 566 32,000  Level FlightAware Transoceanic
04:32PM 55.7577 -26.6124 279° West 492 566 32,000  Level FlightAware Transoceanic
04:33PM 55.7780 -26.8529 278° West 492 566 32,000  Level FlightAware Transoceanic
04:34PM 55.7980 -27.0937 278° West 492 566 32,000  Level FlightAware Transoceanic
04:35PM 55.8174 -27.3346 278° West 492 566 32,000  Level FlightAware Transoceanic
04:36PM 55.8364 -27.5759 278° West 492 566 32,000  Level FlightAware Transoceanic
04:37PM 55.8549 -27.8173 278° West 492 566 32,000  Level FlightAware Transoceanic
04:38PM 55.8729 -28.0590 277° West 492 566 32,000  Level FlightAware Transoceanic
04:39PM 55.8905 -28.3009 277° West 492 566 32,000  Level FlightAware Transoceanic
04:40PM 55.9075 -28.5430 277° West 492 566 32,000  Level FlightAware Transoceanic
04:41PM 55.9241 -28.7854 277° West 492 566 32,000  Level FlightAware Transoceanic
04:42PM 55.9403 -29.0279 277° West 492 566 32,000  Level FlightAware Transoceanic
04:43PM 55.9559 -29.2707 276° West 492 566 32,000  Level FlightAware Transoceanic
04:44PM 55.9711 -29.5136 276° West 492 566 32,000  Level FlightAware Transoceanic
04:45PM 55.9858 -29.7567 276° West 492 566 32,000 60 Level FlightAware Transoceanic
04:46PM 55.9665 -29.9615 261° West  Level Estimated
04:47PM 55.9469 -30.1662 260° West  Level Estimated
04:48PM 55.9269 -30.3706 260° West  Level Estimated
04:49PM 55.9066 -30.5748 260° West  Level Estimated
04:50PM 55.8859 -30.7788 260° West  Level Estimated
04:51PM 55.8650 -30.9825 260° West  Level Estimated
04:52PM 55.8436 -31.1861 260° West  Level Estimated
04:53PM 55.8220 -31.3894 259° West  Level Estimated
04:54PM 55.8000 -31.5925 259° West  Level Estimated
04:55PM 55.7777 -31.7954 259° West  Level Estimated
04:56PM 55.7550 -31.9980 259° West  Level Estimated
04:57PM 55.7320 -32.2004 259° West  Level Estimated
04:58PM 55.7087 -32.4026 259° West  Level Estimated
04:59PM 55.6851 -32.6045 258° West  Level Estimated
05:00PM 55.6611 -32.8062 258° West  Level Estimated
05:01PM 55.6368 -33.0076 258° West  Level Estimated
05:02PM 55.6121 -33.2088 258° West  Level Estimated
05:03PM 55.5872 -33.4097 258° West  Level Estimated
05:04PM 55.5619 -33.6103 258° West  Level Estimated
05:05PM 55.5362 -33.8107 257° West  Level Estimated
05:06PM 55.5103 -34.0108 257° West  Level Estimated
05:07PM 55.4840 -34.2107 257° West  Level Estimated
05:08PM 55.4574 -34.4103 257° West  Level Estimated
05:09PM 55.4305 -34.6096 257° West  Level Estimated
05:10PM 55.4032 -34.8087 257° West  Level Estimated
05:11PM 55.3757 -35.0075 256° West  Level Estimated
05:12PM 55.3478 -35.2060 256° West  Level Estimated
05:13PM 55.3195 -35.4042 256° West  Level Estimated
05:14PM 55.2910 -35.6021 256° West  Level Estimated
05:15PM 55.2621 -35.7998 256° West  Level Estimated
05:16PM 55.2330 -35.9971 256° West  Level Estimated
05:17PM 55.2035 -36.1942 255° West  Level Estimated
05:18PM 55.1737 -36.3910 255° West  Level Estimated
05:19PM 55.1435 -36.5875 255° West  Level Estimated
05:20PM 55.1131 -36.7836 255° West  Level Estimated
05:21PM 55.0823 -36.9795 255° West  Level Estimated
05:22PM 55.0513 -37.1751 255° West  Level Estimated
05:23PM 55.0199 -37.3704 254° West  Level Estimated
05:24PM 54.9882 -37.5654 254° West  Level Estimated
05:25PM 54.9562 -37.7600 254° West  Level Estimated
05:26PM 54.9239 -37.9544 254° West  Level Estimated
05:27PM 54.8912 -38.1484 254° West  Level Estimated
05:28PM 54.8583 -38.3421 254° West  Level Estimated
05:29PM 54.8250 -38.5355 253° West  Level Estimated
05:30PM 54.7915 -38.7286 253° West  Level Estimated
05:31PM 54.7576 -38.9214 253° West  Level Estimated
05:32PM 54.7235 -39.1138 253° West  Level Estimated
05:33PM 54.6890 -39.3059 253° West  Level Estimated
05:34PM 54.6542 -39.4977 253° West  Level Estimated
05:35PM 54.6192 -39.6891 253° West  Level Estimated
05:36PM 54.5838 -39.8803 252° West  Level Estimated
05:37PM 54.5481 -40.0710 252° West  Level Estimated
05:37PM 56.0500 -41.6000 251° West 470 541 38,000  Level Gander Center
05:38PM 54.5121 -40.2615 252° West  Level Estimated
05:38PM 56.0500 -41.8500 270° West 470 541 38,000  Level Gander Center
05:39PM 54.4759 -40.4516 252° West  Level Estimated
05:39PM 56.0500 -42.0667 270° West 470 541 38,000  Level Gander Center
05:40PM 54.4393 -40.6414 252° West  Level Estimated
05:40PM 56.0667 -42.3000 277° West 470 541 38,000  Level Gander Center
05:41PM 54.4024 -40.8308 252° West  Level Estimated
05:41PM 56.0667 -42.5500 270° West 470 541 38,000  Level Gander Center
05:42PM 54.3653 -41.0200 251° West  Level Estimated
05:42PM 56.0667 -42.7667 270° West 470 541 38,000  Level Gander Center
05:43PM 54.3278 -41.2087 251° West  Level Estimated
05:43PM 56.0667 -43.0000 270° West 470 541 38,000  Level Gander Center
05:44PM 56.0833 -43.2500 277° West 470 541 38,000  Level Gander Center
05:45PM 56.0833 -43.5000 270° West 470 541 38,000  Level Gander Center
05:46PM 56.0833 -43.7000 270° West 470 541 38,000  Level Gander Center
05:47PM 56.0833 -43.9500 270° West 470 541 38,000  Level Gander Center
05:48PM 56.0833 -44.1667 270° West 470 541 38,000  Level Gander Center
05:49PM 56.0833 -44.4167 270° West 470 541 38,000  Level Gander Center
05:50PM 56.1000 -44.6500 277° West 480 552 38,000  Level Gander Center
05:51PM 56.1000 -44.8667 270° West 470 541 38,000  Level Gander Center
05:52PM 56.1000 -45.1167 270° West 470 541 38,000  Level Gander Center
05:53PM 56.0833 -45.3500 263° West 470 541 38,000  Level Gander Center
05:54PM 56.0833 -45.5667 270° West 470 541 38,000  Level Gander Center
05:55PM 56.1000 -45.8000 277° West 470 541 38,000  Level Gander Center
05:56PM 56.1000 -46.0500 270° West 470 541 38,000  Level Gander Center
05:57PM 56.0833 -46.2667 262° West 470 541 38,000  Level Gander Center
05:58PM 56.0833 -46.5167 270° West 470 541 38,000  Level Gander Center
05:59PM 56.0833 -46.7500 270° West 470 541 38,000  Level Gander Center
06:00PM 56.0833 -46.9667 270° West 470 541 38,000  Level Gander Center
06:01PM 56.0833 -47.2167 270° West 470 541 38,000  Level Gander Center
06:02PM 56.0667 -47.4667 263° West 470 541 38,000  Level Gander Center
06:03PM 56.0667 -47.6833 270° West 470 541 38,000  Level Gander Center
06:05PM 55.9893 -47.9115 239° Southwest  Level Estimated
06:12PM 55.5359 -49.2069 239° Southwest  Level Estimated
06:13PM 55.4700 -49.3895 238° Southwest  Level Estimated
06:14PM 55.4039 -49.5715 237° Southwest  Level Estimated
06:15PM 55.3375 -49.7528 237° Southwest  Level Estimated
06:16PM 55.2708 -49.9336 237° Southwest  Level Estimated
06:17PM 55.2038 -50.1138 237° Southwest  Level Estimated
06:18PM 55.1366 -50.2933 237° Southwest  Level Estimated
06:19PM 55.0691 -50.4723 237° Southwest  Level Estimated
06:20PM 55.0014 -50.6506 237° Southwest  Level Estimated
06:21PM 54.9334 -50.8283 236° Southwest  Level Estimated
06:22PM 54.8652 -51.0055 236° Southwest  Level Estimated
06:23PM 54.7967 -51.1820 236° Southwest  Level Estimated
06:24PM 54.7279 -51.3580 236° Southwest  Level Estimated
06:25PM 54.6589 -51.5333 236° Southwest  Level Estimated
06:26PM 54.5896 -51.7081 236° Southwest  Level Estimated
06:27PM 54.5201 -51.8822 236° Southwest  Level Estimated
06:27PM 55.2833 -53.1500 235° Southwest 490 564 38,000  Level Gander Center
06:28PM 54.4503 -52.0558 235° Southwest  Level Estimated
06:28PM 55.2333 -53.3333 245° Southwest 480 552 38,000  Level Gander Center
06:29PM 54.3803 -52.2287 235° Southwest  Level Estimated
06:29PM 55.1833 -53.5500 248° West 500 575 38,000  Level Gander Center
06:30PM 54.3100 -52.4011 235° Southwest  Level Estimated
06:30PM 55.1167 -53.7667 242° Southwest 480 552 38,000  Level Gander Center
06:31PM 54.2395 -52.5729 235° Southwest  Level Estimated
06:32PM 54.1688 -52.7441 235° Southwest  Level Estimated
06:32PM 55.0261 -53.9518 230° Southwest  Level FlightAware Approximate
06:33PM 54.0978 -52.9147 235° Southwest  Level Estimated
06:35PM 54.8833 -54.8500 230° Southwest 480 552 38,000  Level Gander Center
06:36PM 54.8167 -55.0667 242° Southwest 480 552 38,000  Level Gander Center
06:37PM 54.7500 -55.2833 242° Southwest 480 552 38,000  Level Gander Center
06:38PM 54.7167 -55.4667 253° West 480 552 38,000  Level Gander Center
06:39PM 54.4603 -55.0766 229° Southwest  Level FlightAware Approximate
06:39PM 54.6333 -55.7000 238° Southwest 480 552 38,000  Level Gander Center
06:40PM 54.3801 -55.2388 230° Southwest  Level Estimated
06:40PM 54.5833 -55.8833 245° Southwest 480 552 38,000  Level Gander Center
06:41PM 54.3030 -55.3939 230° Southwest  Level Estimated
06:41PM 54.5000 -56.1000 237° Southwest 490 564 38,000  Level Gander Center
06:42PM 54.4333 -56.2833 238° Southwest 490 564 38,000  Level Gander Center
06:43PM 54.3333 -56.4667 227° Southwest 480 552 38,000  Level Gander Center
06:44PM 54.2667 -56.6500 238° Southwest 480 552 38,000  Level Gander Center
06:45PM 54.1833 -56.8167 230° Southwest 480 552 38,000  Level Gander Center
06:46PM 54.1000 -57.0000 232° Southwest 480 552 38,000  Level Gander Center
06:47PM 54.0333 -57.1833 238° Southwest 480 552 38,000  Level Gander Center
06:48PM 53.9500 -57.3667 232° Southwest 470 541 38,000  Level Gander Center
06:49PM 53.8667 -57.5333 230° Southwest 470 541 38,000  Level Gander Center
06:50PM 53.8000 -57.7500 243° Southwest 470 541 38,000  Level Gander Center
06:51PM 53.7167 -57.9000 227° Southwest 470 541 38,000  Level Gander Center
06:52PM 53.6333 -58.0667 230° Southwest 470 541 38,000  Level Gander Center
06:53PM 53.5500 -58.2500 233° Southwest 470 541 38,000  Level Gander Center
06:54PM 53.4500 -58.3833 218° Southwest 470 541 38,000  Level Gander Center
06:55PM 53.3667 -58.5667 233° Southwest 470 541 38,000  Level Gander Center
06:56PM 53.2667 -58.7167 222° Southwest 470 541 38,000  Level Gander Center
06:57PM 53.1667 -58.8833 225° Southwest 470 541 38,000  Level Gander Center
06:59PM 53.0667 -59.0833 230° Southwest 470 541 38,000  Level Moncton Center
06:59PM 53.0000 -59.2000 227° Southwest 470 541 38,000  Level Gander Center
07:00PM 52.9000 -59.3667 225° Southwest 470 541 38,000  Level Gander Center
07:01PM 52.8167 -59.5167 227° Southwest 470 541 38,000  Level Gander Center
07:02PM 52.7167 -59.6500 219° Southwest 470 541 38,000  Level Gander Center
07:03PM 52.6333 -59.8167 231° Southwest 470 541 38,000  Level Gander Center
07:04PM 52.5333 -59.9667 222° Southwest 470 541 38,000  Level Gander Center
07:05PM 52.4333 -60.1333 225° Southwest 470 541 38,000  Level Gander Center
07:06PM 52.3500 -60.2667 224° Southwest 470 541 38,000  Level Gander Center
07:07PM 52.2500 -60.4333 226° Southwest 460 529 38,000  Level Gander Center
07:09PM 52.1500 -60.6000 226° Southwest 470 541 38,000  Level Moncton Center
07:09PM 52.0667 -60.7333 225° Southwest 470 541 38,000  Level Gander Center
07:10PM 51.9833 -60.8667 225° Southwest 470 541 38,000  Level Gander Center
07:11PM 51.8833 -61.0167 223° Southwest 460 529 38,000  Level Gander Center
07:12PM 51.8000 -61.1500 225° Southwest 460 529 38,000  Level Gander Center
07:14PM 51.7000 -61.3500 231° Southwest 460 529 38,000  Level Moncton Center
07:14PM 51.6167 -61.4500 217° Southwest 460 529 38,000  Level Gander Center
07:15PM 51.5167 -61.5833 220° Southwest 460 529 38,000  Level Gander Center
07:16PM 51.4167 -61.7333 223° Southwest 460 529 38,000  Level Gander Center
07:17PM 51.3333 -61.8667 225° Southwest 460 529 38,000  Level Gander Center
07:18PM 51.2333 -62.0333 226° Southwest 460 529 38,000  Level Gander Center
07:19PM 51.1500 -62.1667 225° Southwest 470 541 38,000  Level Gander Center
07:20PM 51.0500 -62.3167 223° Southwest 460 529 38,000  Level Gander Center
07:21PM 50.9667 -62.4500 225° Southwest 460 529 38,000  Level Gander Center
07:22PM 50.8667 -62.5833 220° Southwest 450 518 38,000  Level Gander Center
07:23PM 50.7833 -62.7167 225° Southwest 460 529 38,000  Level Gander Center
07:24PM 50.6833 -62.8667 224° Southwest 460 529 38,000  Level Gander Center
07:25PM 50.5833 -63.0000 220° Southwest 450 518 38,000  Level Gander Center
07:26PM 50.4833 -63.1500 224° Southwest 460 529 38,000  Level Gander Center
07:27PM 50.4000 -63.2833 226° Southwest 450 518 38,000  Level Gander Center
07:28PM 50.3167 -63.4000 222° Southwest 460 529 38,000  Level Gander Center
07:29PM 50.2167 -63.5333 220° Southwest 460 529 38,000  Level Gander Center
07:30PM 50.1333 -63.6833 229° Southwest 460 529 38,000  Level Gander Center
07:31PM 50.0167 -63.8000 213° Southwest 460 529 38,000  Level Gander Center
07:32PM 49.9333 -63.9333 226° Southwest 450 518 38,000  Level Gander Center
07:33PM 49.8333 -64.0833 224° Southwest 460 529 38,000  Level Gander Center
07:34PM 49.7500 -64.2000 222° Southwest 450 518 38,000  Level Gander Center
07:35PM 49.6667 -64.3333 226° Southwest 460 529 38,000  Level Gander Center
07:36PM 49.5500 -64.4500 213° Southwest 460 529 38,000  Level Gander Center
07:37PM 49.4667 -64.6000 230° Southwest 450 518 38,000  Level Gander Center
07:38PM 49.3667 -64.7167 217° Southwest 460 529 38,000  Level Gander Center
07:39PM 49.2833 -64.8500 226° Southwest 450 518 38,000  Level Gander Center
07:40PM 49.1667 -64.9833 217° Southwest 450 518 38,000  Level Gander Center
07:41PM 49.0833 -65.1167 226° Southwest 450 518 38,000  Level Gander Center
07:42PM 49.0000 -65.2333 223° Southwest 450 518 38,000  Level Gander Center
07:43PM 48.9000 -65.3500 218° Southwest 450 518 38,000  Level Gander Center
07:45PM 48.7833 -65.4833 217° Southwest 440 506 38,000  Level Moncton Center
07:46PM 48.6833 -65.6333 225° Southwest 440 506 38,000  Level Moncton Center
07:47PM 48.6000 -65.7333 218° Southwest 440 506 38,000  Level Moncton Center
07:48PM 48.5000 -65.8667 221° Southwest 440 506 38,000  Level Moncton Center
07:49PM 48.4167 -65.9833 223° Southwest 440 506 38,000  Level Moncton Center
07:50PM 48.3167 -66.1167 222° Southwest 440 506 38,000  Level Moncton Center
07:51PM 48.2167 -66.2333 218° Southwest 440 506 38,000  Level Moncton Center
07:52PM 48.1333 -66.3333 219° Southwest 430 495 38,000  Level Moncton Center
07:53PM 48.0333 -66.4500 218° Southwest 430 495 38,000  Level Moncton Center
07:54PM 47.9500 -66.5667 223° Southwest 440 506 38,000  Level Moncton Center
07:55PM 47.8667 -66.7000 227° Southwest 430 495 38,000  Level Moncton Center
07:56PM 47.7500 -66.8167 214° Southwest 420 483 38,000  Level Moncton Center
07:57PM 47.6667 -66.9167 219° Southwest 430 495 38,000  Level Moncton Center
07:58PM 47.5833 -67.0333 223° Southwest 430 495 38,000  Level Moncton Center
07:59PM 47.5000 -67.1500 223° Southwest 420 483 38,000  Level Moncton Center
08:00PM 47.4000 -67.2667 218° Southwest 430 495 38,000  Level Moncton Center
08:01PM 47.3000 -67.3667 214° Southwest 440 506 38,000 -120 Level Moncton Center
08:01PM 47.2644 -67.4033 215° Southwest 440 506 37,900  Descending Boston Center
08:06PM 46.7230 -67.8630 215° Southwest 420 483 38,000  Climbing FlightAware
08:07PM 46.6690 -67.9090 210° Southwest 421 484 38,000  Level FlightAware
08:08PM 46.5380 -68.0190 210° Southwest 423 487 38,000  Level FlightAware
08:09PM 46.4570 -68.0870 210° Southwest 431 496 38,000  Level FlightAware
08:10PM 46.3800 -68.1510 210° Southwest 432 497 38,000  Level FlightAware
08:10PM 46.3090 -68.2090 209° Southwest 438 504 38,000  Level FlightAware
08:11PM 46.2390 -68.2670 210° Southwest 440 506 38,000  Level FlightAware
08:12PM 46.1600 -68.3330 210° Southwest 443 510 38,000  Level FlightAware
08:12PM 46.0890 -68.3910 210° Southwest 443 510 38,000  Level FlightAware
08:13PM 46.0090 -68.4570 210° Southwest 442 509 38,000  Level FlightAware
08:14PM 45.9460 -68.5090 210° Southwest 440 506 38,000  Level FlightAware
08:15PM 45.8680 -68.5720 209° Southwest 437 503 38,000  Level FlightAware
08:15PM 45.7900 -68.6360 210° Southwest 436 502 38,000  Level FlightAware
08:16PM 45.7200 -68.6920 209° Southwest 434 499 38,000  Level FlightAware
08:17PM 45.6420 -68.7550 209° Southwest 432 497 38,000  Level FlightAware
08:17PM 45.5720 -68.8120 210° Southwest 432 497 38,000  Level FlightAware
08:18PM 45.5030 -68.8670 209° Southwest 430 495 38,000  Level FlightAware
08:19PM 45.4260 -68.9290 209° Southwest 429 494 38,000  Level FlightAware
08:19PM 45.3560 -68.9850 209° Southwest 429 494 38,000  Level FlightAware
08:20PM 45.2790 -69.0460 209° Southwest 428 493 38,000  Level FlightAware
08:21PM 45.2110 -69.1010 210° Southwest 426 490 38,000  Level FlightAware
08:22PM 45.1330 -69.1620 209° Southwest 425 489 38,000  Level FlightAware
08:22PM 45.0650 -69.2160 209° Southwest 425 489 38,000  Level FlightAware
08:23PM 44.9980 -69.2680 209° Southwest 423 487 38,000  Level FlightAware
08:24PM 44.9200 -69.3300 209° Southwest 422 486 38,000  Level FlightAware
08:24PM 44.8520 -69.3820 208° Southwest 422 486 38,000  Level FlightAware
08:25PM 44.7800 -69.4380 209° Southwest 422 486 38,000  Level FlightAware
08:26PM 44.7070 -69.4960 209° Southwest 420 483 38,000  Level FlightAware
08:26PM 44.6440 -69.5450 209° Southwest 419 482 38,000  Level FlightAware
08:27PM 44.5720 -69.6000 209° Southwest 418 481 38,000  Level FlightAware
08:28PM 44.4980 -69.6570 209° Southwest 415 478 38,000  Level FlightAware
08:29PM 44.4210 -69.7160 209° Southwest 414 476 38,000  Level FlightAware
08:29PM 44.3540 -69.7680 209° Southwest 413 475 38,000  Level FlightAware
08:30PM 44.2870 -69.8190 209° Southwest 410 472 38,000  Level FlightAware
08:31PM 44.2130 -69.8750 208° Southwest 409 471 38,000  Level FlightAware
08:31PM 44.1470 -69.9250 209° Southwest 408 470 38,000  Level FlightAware
08:32PM 44.0810 -69.9760 209° Southwest 406 467 38,000  Level FlightAware
08:33PM 44.0050 -70.0330 208° Southwest 405 466 38,000  Level FlightAware
08:33PM 43.9400 -70.0820 208° Southwest 404 465 38,000  Level FlightAware
08:34PM 43.8670 -70.1370 209° Southwest 403 464 38,000  Level FlightAware
08:35PM 43.8030 -70.1850 208° Southwest 401 461 38,000  Level FlightAware
08:36PM 43.7370 -70.2350 209° Southwest 401 461 38,000  Level FlightAware
08:36PM 43.6610 -70.2910 208° Southwest 401 461 38,000  Level FlightAware
08:37PM 43.5960 -70.3400 209° Southwest 400 460 38,000  Level FlightAware
08:38PM 43.5340 -70.3860 208° Southwest 400 460 38,000  Level FlightAware
08:38PM 43.4610 -70.4400 208° Southwest 398 458 38,000  Level FlightAware
08:39PM 43.3950 -70.4890 208° Southwest 398 458 38,000  Level FlightAware
08:40PM 43.3220 -70.5430 208° Southwest 397 457 38,000  Level FlightAware
08:40PM 43.2570 -70.5910 208° Southwest 396 456 38,000  Level FlightAware
08:41PM 43.1930 -70.6370 208° Southwest 396 456 38,000  Level FlightAware
08:42PM 43.1200 -70.6900 208° Southwest 398 458 38,000  Level FlightAware
08:43PM 43.0550 -70.7380 208° Southwest 399 459 38,000  Level FlightAware
08:43PM 42.9960 -70.7950 215° Southwest 389 448 38,000  Level FlightAware
08:44PM 42.9300 -70.8640 217° Southwest 389 448 38,000  Level FlightAware
08:45PM 42.8710 -70.9220 216° Southwest 390 449 38,000  Level FlightAware
08:45PM 42.8140 -70.9770 215° Southwest 390 449 38,000  Level FlightAware
08:46PM 42.7490 -71.0420 216° Southwest 390 449 38,000  Level FlightAware
08:47PM 42.6910 -71.1000 216° Southwest 391 450 38,000  Level FlightAware
08:47PM 42.6250 -71.1650 216° Southwest 392 451 38,000  Level FlightAware
08:48PM 42.5650 -71.2250 216° Southwest 394 453 38,000  Level FlightAware
08:49PM 42.5010 -71.2890 216° Southwest 396 456 38,000  Level FlightAware
08:50PM 42.4410 -71.3480 216° Southwest 397 457 38,000  Level FlightAware
08:50PM 42.3740 -71.4150 216° Southwest 395 455 38,000  Level FlightAware
08:51PM 42.3100 -71.4780 216° Southwest 385 443 38,000 -300 Level FlightAware
08:52PM 42.2530 -71.5340 216° Southwest 373 429 37,600 -1,080 Descending FlightAware
08:52PM 42.1990 -71.5870 216° Southwest 376 433 36,600 -1,620 Descending FlightAware
08:53PM 42.1390 -71.6450 216° Southwest 379 436 35,500 -1,320 Descending FlightAware
08:54PM 42.0790 -71.7040 216° Southwest 361 415 34,800 -1,380 Descending FlightAware
08:54PM 42.0250 -71.7560 216° Southwest 360 414 33,600 -1,740 Descending FlightAware
08:55PM 41.9630 -71.8160 216° Southwest 353 406 32,400 -1,860 Descending FlightAware
08:56PM 41.9110 -71.8670 216° Southwest 353 406 31,000 -1,740 Descending FlightAware
08:59PM 41.6380 -72.1300 216° Southwest 358 412 25,300 -960 Descending FlightAware
09:03PM 41.3170 -72.4350 216° Southwest 359 413 23,900 -660 Descending FlightAware
09:04PM 41.2620 -72.4870 215° Southwest 354 407 22,400 -2,400 Descending FlightAware
09:05PM 41.2010 -72.5440 215° Southwest 351 404 20,500 -1,380 Descending FlightAware
09:05PM 41.1560 -72.5860 215° Southwest 351 404 20,500 -1,260 Level FlightAware
09:06PM 41.0690 -72.6680 215° Southwest 341 392 18,400 -1,260 Descending FlightAware
09:07PM 41.0250 -72.7090 215° Southwest 341 392 18,400 -4,200 Level FlightAware
09:08PM 40.9730 -72.7580 215° Southwest 300 345 13,200 -4,380 Descending FlightAware
09:09PM 40.9120 -72.8160 216° Southwest 283 326 11,900 -960 Descending FlightAware
09:09PM 40.8790 -72.8470 215° Southwest 279 321 11,800 -1,380 Descending FlightAware
09:10PM 40.8310 -72.8940 217° Southwest 271 312 10,100 -2,040 Descending FlightAware
09:10PM 40.7990 -72.9240 215° Southwest 274 315 9,300 -1,200 Descending FlightAware
09:11PM 40.7700 -72.9530 217° Southwest 271 312 8,900 -900 Descending FlightAware
09:11PM 40.7620 -72.9660 231° Southwest 257 296 8,700 -1,200 Descending FlightAware
09:11PM 40.7550 -72.9860 245° Southwest 248 285 8,400 -1,380 Descending FlightAware
09:12PM 40.7440 -73.0300 252° West 243 280 7,700 -1,440 Descending FlightAware
09:12PM 40.7340 -73.0640 249° West 243 280 7,100 -1,440 Descending FlightAware
09:13PM 40.7240 -73.1070 253° West 238 274 6,400 -1,500 Descending FlightAware
09:13PM 40.7140 -73.1490 253° West 244 281 5,600 -1,560 Descending FlightAware
09:14PM 40.7060 -73.1860 254° West 251 289 5,000 -660 Descending FlightAware
09:14PM 40.6970 -73.2260 253° West 225 259 5,000  Level FlightAware
09:15PM 40.7100 -73.2730 290° West 207 238 5,000 -120 Level FlightAware
09:15PM 40.7290 -73.3020 311° West 206 237 4,900 -600 Descending FlightAware
09:16PM 40.7430 -73.3260 308° West 206 237 4,500 -1,080 Descending FlightAware
09:16PM 40.7580 -73.3500 310° West 207 238 4,000 -540 Descending FlightAware
09:17PM 40.7780 -73.3850 307° West 206 237 4,000  Level FlightAware
09:17PM 40.7900 -73.4050 308° West 201 231 4,000  Level FlightAware
09:18PM 40.8070 -73.4330 309° West 175 201 4,000 -420 Level FlightAware
09:18PM 40.8210 -73.4560 309° West 170 196 3,600 -1,020 Descending FlightAware
09:19PM 40.8340 -73.4790 307° West 168 193 3,100 -1,080 Descending FlightAware
09:19PM 40.8380 -73.4950 288° West 169 194 2,800 -600 Descending FlightAware
09:19PM 40.8290 -73.5200 245° Southwest 172 198 2,700 -180 Descending FlightAware
09:19PM 40.8240 -73.5320 241° Southwest 175 201 2,700  Level FlightAware
09:20PM 40.8120 -73.5590 240° Southwest 159 183 2,700  Level FlightAware
09:20PM 40.8030 -73.5810 242° Southwest 159 183 2,700  Level FlightAware
09:21PM 40.7900 -73.6030 232° Southwest 166 191 2,700  Level FlightAware
09:21PM 40.7700 -73.6230 217° Southwest 166 191 2,700 -180 Level FlightAware
09:22PM 40.7650 -73.6290 222° Southwest 167 192 2,600 -480 Descending FlightAware
09:22PM 40.7480 -73.6480 220° Southwest 162 186 2,400 -540 Descending FlightAware
09:23PM 40.7330 -73.6700 228° Southwest 157 181 2,100 -660 Descending FlightAware
09:23PM 40.7210 -73.6880 229° Southwest 156 180 1,800 -720 Descending FlightAware